createdAt,value
2022-08-03T00:01:35.849Z,4.18
2022-08-03T00:04:03.907Z,3.95
2022-08-03T00:06:36.823Z,4.05
2022-08-03T00:09:06.587Z,3.80
2022-08-03T00:11:36.667Z,4.18
2022-08-03T00:14:04.721Z,4.35
2022-08-03T00:16:33.073Z,3.97
2022-08-03T00:19:01.120Z,4.07
2022-08-03T00:21:29.459Z,3.90
2022-08-03T00:23:57.463Z,3.90
2022-08-03T00:26:25.409Z,3.70
2022-08-03T00:28:54.607Z,4.13
2022-08-03T00:31:51.567Z,3.50
2022-08-03T00:34:10.457Z,4.00
2022-08-03T00:36:40.851Z,4.15
2022-08-03T00:39:09.008Z,4.65
2022-08-03T00:41:36.915Z,3.90
2022-08-03T00:44:06.439Z,4.05
2022-08-03T00:46:34.303Z,4.50
2022-08-03T00:49:02.326Z,3.92
2022-08-03T00:51:30.359Z,4.25
2022-08-03T00:53:58.380Z,4.20
2022-08-03T00:56:27.039Z,4.57
2022-08-03T00:58:58.079Z,3.80
2022-08-03T01:01:30.623Z,3.80
2022-08-03T01:04:01.134Z,3.78
2022-08-03T01:06:37.122Z,3.65
2022-08-03T01:09:10.816Z,3.90
2022-08-03T01:11:59.809Z,4.70
2022-08-03T01:14:35.450Z,4.20
2022-08-03T01:17:13.520Z,4.53
2022-08-03T01:19:50.727Z,4.80
2022-08-03T01:22:46.265Z,4.43
2022-08-03T01:25:26.025Z,4.22
2022-08-03T01:28:03.832Z,4.30
2022-08-03T01:30:36.495Z,3.95
2022-08-03T01:33:07.274Z,4.10
2022-08-03T01:35:42.991Z,4.45
2022-08-03T01:38:14.858Z,4.30
2022-08-03T01:40:48.163Z,4.60
2022-08-03T01:44:27.043Z,4.15
2022-08-03T01:46:11.637Z,4.35
2022-08-03T01:48:43.364Z,4.13
2022-08-03T01:51:13.237Z,4.30
2022-08-03T01:53:43.434Z,4.10
2022-08-03T01:56:12.399Z,4.35
2022-08-03T01:58:42.635Z,4.55
2022-08-03T02:01:14.721Z,4.45
2022-08-03T02:03:59.608Z,4.10
2022-08-03T02:07:00.730Z,4.05
2022-08-03T02:09:22.149Z,4.43
2022-08-03T02:11:51.157Z,4.70
2022-08-03T02:14:21.458Z,4.30
2022-08-03T02:16:51.784Z,4.15
2022-08-03T02:19:20.757Z,4.07
2022-08-03T02:21:56.964Z,4.07
2022-08-03T02:24:29.884Z,4.45
2022-08-03T02:26:59.439Z,4.03
2022-08-03T02:29:39.733Z,4.45
2022-08-03T02:32:13.692Z,4.35
2022-08-03T02:34:46.936Z,4.35
2022-08-03T02:37:16.172Z,4.18
2022-08-03T02:39:45.612Z,4.40
2022-08-03T02:42:15.810Z,4.63
2022-08-03T02:44:48.551Z,4.32
2022-08-03T02:47:22.062Z,4.55
2022-08-03T02:49:52.677Z,4.50
2022-08-03T02:52:24.460Z,4.68
2022-08-03T02:54:56.246Z,4.63
2022-08-03T02:57:26.064Z,4.45
2022-08-03T02:59:55.367Z,4.28
2022-08-03T03:02:26.168Z,4.85
2022-08-03T03:05:53.625Z,4.43
2022-08-03T03:07:51.319Z,4.75
2022-08-03T03:10:20.918Z,4.55
2022-08-03T03:12:51.542Z,4.63
2022-08-03T03:15:20.046Z,4.80
2022-08-03T03:17:50.857Z,4.57
2022-08-03T03:20:29.155Z,4.75
2022-08-03T03:22:59.875Z,4.60
2022-08-03T03:25:29.104Z,4.80
2022-08-03T03:27:57.734Z,5.00
2022-08-03T03:30:26.808Z,4.57
2022-08-03T03:32:56.515Z,5.10
2022-08-03T03:35:24.724Z,5.30
2022-08-03T03:37:53.723Z,4.90
2022-08-03T03:40:22.182Z,4.55
2022-08-03T03:42:51.154Z,4.35
2022-08-03T03:45:20.051Z,5.30
2022-08-03T03:47:48.655Z,5.10
2022-08-03T03:50:19.672Z,4.70
2022-08-03T03:52:47.633Z,4.72
2022-08-03T03:55:18.038Z,5.10
2022-08-03T03:57:46.906Z,5.43
2022-08-03T04:00:16.872Z,5.90
2022-08-03T04:02:45.205Z,5.15
2022-08-03T04:05:31.003Z,4.70
2022-08-03T04:08:20.385Z,4.90
2022-08-03T04:11:05.201Z,4.93
2022-08-03T04:13:36.572Z,5.20
2022-08-03T04:16:06.843Z,5.28
2022-08-03T04:18:39.478Z,5.72
2022-08-03T04:21:11.257Z,6.38
2022-08-03T04:23:46.023Z,5.68
2022-08-03T04:26:16.597Z,5.35
2022-08-03T04:28:47.781Z,8.32
2022-08-03T04:31:17.182Z,5.32
2022-08-03T04:33:46.280Z,5.10
2022-08-03T04:36:18.728Z,5.40
2022-08-03T04:38:56.869Z,5.38
2022-08-03T04:41:27.203Z,5.35
2022-08-03T04:43:57.218Z,5.72
2022-08-03T04:46:28.395Z,5.75
2022-08-03T04:48:57.578Z,6.45
2022-08-03T04:51:26.961Z,6.05
2022-08-03T04:53:56.287Z,7.25
2022-08-03T04:56:24.217Z,13.48
2022-08-03T04:58:52.153Z,8.52
2022-08-03T05:01:20.770Z,7.78
2022-08-03T05:03:48.896Z,7.15
2022-08-03T05:06:18.120Z,9.07
2022-08-03T05:08:47.074Z,8.60
2022-08-03T05:11:18.478Z,6.50
2022-08-03T05:13:47.067Z,6.97
2022-08-03T05:16:15.529Z,10.85
2022-08-03T05:18:45.061Z,8.07
2022-08-03T05:21:14.252Z,9.38
2022-08-03T05:23:42.227Z,7.93
2022-08-03T05:26:11.808Z,7.20
2022-08-03T05:28:50.670Z,6.30
2022-08-03T05:31:19.813Z,7.60
2022-08-03T05:33:49.148Z,6.30
2022-08-03T05:36:17.325Z,5.88
2022-08-03T05:38:48.317Z,13.52
2022-08-03T05:41:23.228Z,10.60
2022-08-03T05:43:54.788Z,8.88
2022-08-03T05:46:23.945Z,9.98
2022-08-03T05:48:52.392Z,7.50
2022-08-03T05:51:20.429Z,6.22
2022-08-03T05:53:48.548Z,6.13
2022-08-03T05:56:17.039Z,6.13
2022-08-03T05:58:46.882Z,6.30
2022-08-03T06:01:17.551Z,6.28
2022-08-03T06:03:45.966Z,5.95
2022-08-03T06:06:13.998Z,6.43
2022-08-03T06:08:44.635Z,7.30
2022-08-03T06:11:12.906Z,6.28
2022-08-03T06:13:40.874Z,6.43
2022-08-03T06:16:09.109Z,8.65
2022-08-03T06:18:39.232Z,6.50
2022-08-03T06:21:14.978Z,9.30
2022-08-03T06:23:54.850Z,8.23
2022-08-03T06:26:24.837Z,7.38
2022-08-03T06:28:54.450Z,9.73
2022-08-03T06:31:32.256Z,10.25
2022-08-03T06:34:33.596Z,12.95
2022-08-03T06:36:52.439Z,16.08
2022-08-03T06:39:21.116Z,13.40
2022-08-03T06:41:52.367Z,10.73
2022-08-03T06:44:20.352Z,11.05
2022-08-03T06:46:48.472Z,9.90
2022-08-03T06:49:18.099Z,14.88
2022-08-03T06:52:04.539Z,14.25
2022-08-03T06:54:35.674Z,11.80
2022-08-03T06:57:04.016Z,7.68
2022-08-03T07:00:08.021Z,13.25
2022-08-03T07:02:20.618Z,9.27
2022-08-03T07:04:50.704Z,7.05
2022-08-03T07:07:19.481Z,5.18
2022-08-03T07:09:56.705Z,4.85
2022-08-03T07:12:29.104Z,4.18
2022-08-03T07:15:01.267Z,4.25
2022-08-03T07:17:31.645Z,4.75
2022-08-03T07:20:01.948Z,4.00
2022-08-03T07:22:30.093Z,5.00
2022-08-03T07:24:58.289Z,4.60
2022-08-03T07:27:28.703Z,4.88
2022-08-03T07:29:56.825Z,5.40
2022-08-03T07:32:25.238Z,4.28
2022-08-03T07:34:58.312Z,5.25
2022-08-03T07:37:30.846Z,7.50
2022-08-03T07:39:59.255Z,6.57
2022-08-03T07:42:27.458Z,5.03
2022-08-03T07:44:55.356Z,8.50
2022-08-03T07:47:25.757Z,4.75
2022-08-03T07:50:04.086Z,4.75
2022-08-03T07:52:53.181Z,5.15
2022-08-03T07:55:23.192Z,12.38
2022-08-03T07:58:01.626Z,4.30
2022-08-03T08:00:29.712Z,15.38
2022-08-03T08:02:57.619Z,5.40
2022-08-03T08:05:25.576Z,6.65
2022-08-03T08:07:54.921Z,5.03
2022-08-03T08:10:22.986Z,11.93
2022-08-03T08:12:51.152Z,4.45
2022-08-03T08:15:19.137Z,4.10
2022-08-03T08:17:49.650Z,4.78
2022-08-03T08:20:25.217Z,12.07
2022-08-03T08:23:01.116Z,9.07
2022-08-03T08:25:30.374Z,4.30
2022-08-03T08:28:31.806Z,5.97
2022-08-03T08:30:47.070Z,3.28
2022-08-03T08:33:22.660Z,10.82
2022-08-03T08:35:52.023Z,8.20
2022-08-03T08:38:21.447Z,3.90
2022-08-03T08:40:50.397Z,3.25
2022-08-03T08:43:18.373Z,3.00
2022-08-03T08:45:48.479Z,3.45
2022-08-03T08:48:19.445Z,3.33
2022-08-03T08:50:47.686Z,3.30
2022-08-03T08:53:18.277Z,3.10
2022-08-03T08:55:59.614Z,9.27
2022-08-03T08:58:30.838Z,4.85
2022-08-03T09:00:59.062Z,5.65
2022-08-03T09:03:30.168Z,6.50
2022-08-03T09:06:01.334Z,5.75
2022-08-03T09:08:30.350Z,5.20
2022-08-03T09:10:59.808Z,4.35
2022-08-03T09:13:29.347Z,3.80
2022-08-03T09:16:18.913Z,3.40
2022-08-03T09:18:48.411Z,4.05
2022-08-03T09:21:34.897Z,3.10
2022-08-03T09:24:06.104Z,2.90
2022-08-03T09:26:37.475Z,2.80
2022-08-03T09:29:13.467Z,3.40
2022-08-03T09:31:44.646Z,6.18
2022-08-03T09:34:14.730Z,4.80
2022-08-03T09:36:44.648Z,4.95
2022-08-03T09:39:14.601Z,5.95
2022-08-03T09:41:45.397Z,3.40
2022-08-03T09:44:24.158Z,3.10
2022-08-03T09:46:57.298Z,3.20
2022-08-03T09:49:26.030Z,3.15
2022-08-03T09:52:32.566Z,2.97
2022-08-03T09:54:43.309Z,2.67
2022-08-03T09:57:21.830Z,3.72
2022-08-03T09:59:50.163Z,2.97
2022-08-03T10:02:26.129Z,2.70
2022-08-03T10:04:55.492Z,2.97
2022-08-03T10:07:24.664Z,2.85
2022-08-03T10:09:58.309Z,2.70
2022-08-03T10:12:49.234Z,5.03
2022-08-03T10:16:21.866Z,10.35
2022-08-03T10:18:05.791Z,4.13
2022-08-03T10:20:37.888Z,3.50
2022-08-03T10:23:07.082Z,3.65
2022-08-03T10:25:39.028Z,2.90
2022-08-03T10:28:12.063Z,2.50
2022-08-03T10:30:42.458Z,3.00
2022-08-03T10:33:51.197Z,2.60
2022-08-03T10:36:07.755Z,2.97
2022-08-03T10:38:41.619Z,2.95
2022-08-03T10:41:10.068Z,2.85
2022-08-03T10:43:48.959Z,2.80
2022-08-03T10:46:18.882Z,2.95
2022-08-03T10:48:47.569Z,2.80
2022-08-03T10:51:16.052Z,2.22
2022-08-03T10:53:52.847Z,2.92
2022-08-03T10:56:57.854Z,2.45
2022-08-03T11:00:06.944Z,2.45
2022-08-03T11:03:08.815Z,3.42
2022-08-03T11:05:41.933Z,4.10
2022-08-03T11:08:30.231Z,3.53
2022-08-03T11:11:01.076Z,3.70
2022-08-03T11:13:33.500Z,2.70
2022-08-03T11:16:07.778Z,3.25
2022-08-03T11:18:57.253Z,3.40
2022-08-03T11:21:54.421Z,3.25
2022-08-03T11:24:59.976Z,3.67
2022-08-03T11:27:34.972Z,6.13
2022-08-03T11:30:07.643Z,12.32
2022-08-03T11:32:59.986Z,4.40
2022-08-03T11:35:30.960Z,5.10
2022-08-03T11:38:19.339Z,4.35
2022-08-03T11:40:48.959Z,3.30
2022-08-03T11:43:47.445Z,7.97
2022-08-03T11:46:29.552Z,4.28
2022-08-03T11:49:09.931Z,6.32
2022-08-03T11:51:40.970Z,3.08
2022-08-03T11:54:09.627Z,3.20
2022-08-03T11:56:47.611Z,3.15
2022-08-03T11:59:20.650Z,2.85
2022-08-03T12:01:49.973Z,4.25
2022-08-03T12:04:18.099Z,2.92
2022-08-03T12:07:00.870Z,2.70
2022-08-03T12:09:29.057Z,2.58
2022-08-03T12:12:00.157Z,19.00
2022-08-03T12:14:48.539Z,7.50
2022-08-03T12:17:18.010Z,3.92
2022-08-03T12:19:46.644Z,3.95
2022-08-03T12:22:16.834Z,5.03
2022-08-03T12:24:47.598Z,3.75
2022-08-03T12:27:24.858Z,2.97
2022-08-03T12:29:58.165Z,2.97
2022-08-03T12:32:27.071Z,8.68
2022-08-03T12:34:55.597Z,2.90
2022-08-03T12:37:25.930Z,3.78
2022-08-03T12:40:02.835Z,7.18
2022-08-03T12:42:34.964Z,2.95
2022-08-03T12:45:21.702Z,2.75
2022-08-03T12:47:54.586Z,2.80
2022-08-03T12:50:27.313Z,3.00
2022-08-03T12:52:56.989Z,7.05
2022-08-03T12:56:02.347Z,4.93
2022-08-03T12:58:33.794Z,3.60
2022-08-03T13:01:05.002Z,3.70
2022-08-03T13:03:43.236Z,2.58
2022-08-03T13:06:15.440Z,2.70
2022-08-03T13:08:46.101Z,2.67
2022-08-03T13:11:52.567Z,2.95
2022-08-03T13:14:16.885Z,5.25
2022-08-03T13:16:48.663Z,3.65
2022-08-03T13:19:16.648Z,3.38
2022-08-03T13:22:03.430Z,2.75
2022-08-03T13:24:34.757Z,2.90
2022-08-03T13:28:02.198Z,2.70
2022-08-03T13:29:54.105Z,2.80
2022-08-03T13:32:22.509Z,2.75
2022-08-03T13:34:50.822Z,3.08
2022-08-03T13:37:18.920Z,3.90
2022-08-03T13:39:58.932Z,3.30
2022-08-03T13:42:28.563Z,2.80
2022-08-03T13:44:56.566Z,3.10
2022-08-03T13:47:24.539Z,3.75
2022-08-03T13:49:54.327Z,3.10
2022-08-03T13:52:30.363Z,3.35
2022-08-03T13:55:00.229Z,2.53
2022-08-03T13:58:05.986Z,2.85
2022-08-03T14:00:27.920Z,2.35
2022-08-03T14:03:14.891Z,2.50
2022-08-03T14:05:44.130Z,2.58
2022-08-03T14:08:12.698Z,2.83
2022-08-03T14:10:44.328Z,2.50
2022-08-03T14:13:17.762Z,2.60
2022-08-03T14:15:49.824Z,2.72
2022-08-03T14:18:27.890Z,2.42
2022-08-03T14:21:05.890Z,2.90
2022-08-03T14:23:36.186Z,2.97
2022-08-03T14:26:06.047Z,3.10
2022-08-03T14:28:34.363Z,2.60
2022-08-03T14:31:02.651Z,2.55
2022-08-03T14:33:30.642Z,2.47
2022-08-03T14:35:58.544Z,2.80
2022-08-03T14:38:26.549Z,3.40
2022-08-03T14:40:54.885Z,3.97
2022-08-03T14:43:24.575Z,4.85
2022-08-03T14:45:53.717Z,3.40
2022-08-03T14:50:10.340Z,2.90
2022-08-03T14:51:10.341Z,3.50
2022-08-03T14:53:38.452Z,2.75
2022-08-03T14:56:10.505Z,3.38
2022-08-03T14:58:40.406Z,3.00
2022-08-03T15:02:04.540Z,2.80
2022-08-03T15:03:56.983Z,2.90
2022-08-03T15:06:25.133Z,2.80
2022-08-03T15:09:13.727Z,2.80
2022-08-03T15:11:41.326Z,2.97
2022-08-03T15:14:10.793Z,2.58
2022-08-03T15:16:41.948Z,2.33
2022-08-03T15:20:01.596Z,2.65
2022-08-03T15:21:57.931Z,2.55
2022-08-03T15:24:29.017Z,3.90
2022-08-03T15:26:56.828Z,3.20
2022-08-03T15:30:05.527Z,2.75
2022-08-03T15:32:14.765Z,3.63
2022-08-03T15:34:50.659Z,3.17
2022-08-03T15:37:19.744Z,2.90
2022-08-03T15:39:58.131Z,3.30
2022-08-03T15:42:28.281Z,4.20
2022-08-03T15:44:57.677Z,3.10
2022-08-03T15:47:25.826Z,3.50
2022-08-03T15:49:53.667Z,3.03
2022-08-03T15:52:21.714Z,3.22
2022-08-03T15:54:49.725Z,2.80
2022-08-03T15:57:17.743Z,2.80
2022-08-03T15:59:45.777Z,3.05
2022-08-03T16:02:15.267Z,3.78
2022-08-03T16:04:43.306Z,6.03
2022-08-03T16:07:12.713Z,3.55
2022-08-03T16:09:46.001Z,3.20
2022-08-03T16:12:16.142Z,3.60
2022-08-03T16:14:52.790Z,3.42
2022-08-03T16:17:24.443Z,2.80
2022-08-03T16:19:55.059Z,3.50
2022-08-03T16:22:23.779Z,2.72
2022-08-03T16:24:52.279Z,2.75
2022-08-03T16:27:58.098Z,2.97
2022-08-03T16:30:10.282Z,2.80
2022-08-03T16:32:39.947Z,3.70
2022-08-03T16:35:09.216Z,3.10
2022-08-03T16:37:51.801Z,3.25
2022-08-03T16:40:26.079Z,3.22
2022-08-03T16:42:54.170Z,4.10
2022-08-03T16:45:22.605Z,4.13
2022-08-03T16:48:04.842Z,3.92
2022-08-03T16:50:35.374Z,2.88
2022-08-03T16:53:09.022Z,2.80
2022-08-03T16:55:43.480Z,3.10
2022-08-03T16:58:34.413Z,3.40
2022-08-03T17:01:21.135Z,3.10
2022-08-03T17:04:01.952Z,2.95
2022-08-03T17:06:34.307Z,2.70
2022-08-03T17:09:08.397Z,3.53
2022-08-03T17:11:43.055Z,7.72
2022-08-03T17:14:22.088Z,3.67
2022-08-03T17:16:53.909Z,3.13
2022-08-03T17:19:26.377Z,3.38
2022-08-03T17:22:01.253Z,3.30
2022-08-03T17:24:34.626Z,3.95
2022-08-03T17:27:08.860Z,8.40
2022-08-03T17:29:44.887Z,5.15
2022-08-03T17:32:18.318Z,3.50
2022-08-03T17:34:51.081Z,7.85
2022-08-03T17:37:50.660Z,14.18
2022-08-03T17:40:12.756Z,10.43
2022-08-03T17:42:46.379Z,8.70
2022-08-03T17:45:19.286Z,4.78
2022-08-03T17:47:57.154Z,2.80
2022-08-03T17:50:45.475Z,2.80
2022-08-03T17:53:24.054Z,3.00
2022-08-03T17:56:40.368Z,4.18
2022-08-03T17:59:08.536Z,4.65
2022-08-03T18:02:12.272Z,5.82
2022-08-03T18:05:00.663Z,4.97
2022-08-03T18:07:41.200Z,7.72
2022-08-03T18:10:15.374Z,6.05
2022-08-03T18:12:52.215Z,5.95
2022-08-03T18:15:26.410Z,11.50
2022-08-03T18:18:01.938Z,7.18
2022-08-03T18:20:40.895Z,4.72
2022-08-03T18:23:24.584Z,9.40
2022-08-03T18:26:06.837Z,19.27
2022-08-03T18:28:38.326Z,12.32
2022-08-03T18:31:07.576Z,10.93
2022-08-03T18:36:29.578Z,5.53
2022-08-03T18:39:06.857Z,14.65
2022-08-03T18:41:37.201Z,11.68
2022-08-03T18:44:09.237Z,9.90
2022-08-03T18:47:16.303Z,26.33
2022-08-03T18:49:53.913Z,14.05
2022-08-03T18:52:27.858Z,16.98
2022-08-03T18:55:20.831Z,10.20
2022-08-03T18:58:06.867Z,6.85
2022-08-03T19:00:54.418Z,7.93
2022-08-03T19:03:43.445Z,5.20
2022-08-03T19:06:20.283Z,7.68
2022-08-03T19:08:55.793Z,14.18
2022-08-03T19:12:14.560Z,5.97
2022-08-03T19:14:28.810Z,4.30
2022-08-03T19:17:06.611Z,5.00
2022-08-03T19:19:44.489Z,7.22
2022-08-03T19:22:16.345Z,9.15
2022-08-03T19:24:47.827Z,12.13
2022-08-03T19:27:17.155Z,8.82
2022-08-03T19:29:59.830Z,7.70
2022-08-03T19:32:29.973Z,6.05
2022-08-03T19:34:59.410Z,6.47
2022-08-03T19:37:38.713Z,6.70
2022-08-03T19:40:10.953Z,9.13
2022-08-03T19:42:45.541Z,6.00
2022-08-03T19:45:22.498Z,4.63
2022-08-03T19:48:13.478Z,3.35
2022-08-03T19:50:44.748Z,4.43
2022-08-03T19:53:14.207Z,8.93
2022-08-03T19:55:47.482Z,6.53
2022-08-03T19:58:24.508Z,6.40
2022-08-03T20:00:57.109Z,5.25
2022-08-03T20:03:27.812Z,7.15
2022-08-03T20:06:16.916Z,5.38
2022-08-03T20:08:45.903Z,4.65
2022-08-03T20:11:19.728Z,4.38
2022-08-03T20:13:53.442Z,4.50
2022-08-03T20:16:21.956Z,5.97
2022-08-03T20:18:49.916Z,6.50
2022-08-03T20:21:18.834Z,5.80
2022-08-03T20:24:02.753Z,5.97
2022-08-03T20:26:39.521Z,4.20
2022-08-03T20:29:14.997Z,9.10
2022-08-03T20:31:43.079Z,4.43
2022-08-03T20:34:11.017Z,4.75
2022-08-03T20:36:39.049Z,7.00
2022-08-03T20:39:07.770Z,5.30
2022-08-03T20:41:37.158Z,5.07
2022-08-03T20:44:05.810Z,8.60
2022-08-03T20:46:50.255Z,5.55
2022-08-03T20:49:23.956Z,4.78
2022-08-03T20:51:53.607Z,4.22
2022-08-03T20:54:29.733Z,4.78
2022-08-03T20:56:59.142Z,4.30
2022-08-03T20:59:36.604Z,4.05
2022-08-03T21:02:08.524Z,4.43
2022-08-03T21:04:37.524Z,4.40
2022-08-03T21:07:17.261Z,3.95
2022-08-03T21:09:51.899Z,3.97
2022-08-03T21:12:28.846Z,4.07
2022-08-03T21:13:04.167Z,9.07
2022-08-03T21:15:02.765Z,4.20
2022-08-03T21:17:42.005Z,4.60
2022-08-03T21:20:12.123Z,4.70
2022-08-03T21:22:44.288Z,5.78
2022-08-03T21:25:17.630Z,4.78
2022-08-03T21:27:46.274Z,4.25
2022-08-03T21:30:15.380Z,3.97
2022-08-03T21:32:46.298Z,3.97
2022-08-03T21:35:15.323Z,4.55
2022-08-03T21:37:44.747Z,4.15
2022-08-03T21:40:15.925Z,4.53
2022-08-03T21:42:48.697Z,4.10
2022-08-03T21:45:17.885Z,4.35
2022-08-03T21:47:48.451Z,4.38
2022-08-03T21:50:18.417Z,4.30
2022-08-03T21:52:48.899Z,4.10
2022-08-03T21:55:20.262Z,3.95
2022-08-03T21:57:53.842Z,3.50
2022-08-03T22:00:24.126Z,4.18
2022-08-03T22:02:57.169Z,3.92
2022-08-03T22:05:42.698Z,3.47
2022-08-03T22:08:12.472Z,3.80
2022-08-03T22:10:40.677Z,3.80
2022-08-03T22:13:09.304Z,3.90
2022-08-03T22:15:37.253Z,3.75
2022-08-03T22:18:06.885Z,3.67
2022-08-03T22:20:34.986Z,4.22
2022-08-03T22:23:04.714Z,3.22
2022-08-03T22:25:35.526Z,4.25
2022-08-03T22:28:07.295Z,3.30
2022-08-03T22:30:35.719Z,3.53
2022-08-03T22:33:11.415Z,3.38
2022-08-03T22:35:47.157Z,3.67
2022-08-03T22:38:17.292Z,3.72
2022-08-03T22:40:48.260Z,4.03
2022-08-03T22:43:16.394Z,3.88
2022-08-03T22:46:09.319Z,3.75
2022-08-03T22:48:40.945Z,3.67
2022-08-03T22:51:09.293Z,3.63
2022-08-03T22:53:37.353Z,3.40
2022-08-03T22:56:05.729Z,4.78
2022-08-03T22:58:33.714Z,4.13
2022-08-03T23:01:05.569Z,3.75
2022-08-03T23:03:59.332Z,3.92
2022-08-03T23:06:28.314Z,3.58
2022-08-03T23:08:56.991Z,3.60
2022-08-03T23:11:25.553Z,3.63
2022-08-03T23:13:55.052Z,3.67
2022-08-03T23:16:28.500Z,3.67
2022-08-03T23:19:00.043Z,4.32
2022-08-03T23:21:53.946Z,3.95
2022-08-03T23:24:30.769Z,3.88
2022-08-03T23:26:59.387Z,4.00
2022-08-03T23:29:30.261Z,4.88
2022-08-03T23:31:59.467Z,3.95
2022-08-03T23:34:46.551Z,3.80
2022-08-03T23:37:15.469Z,3.05
2022-08-03T23:39:46.823Z,3.60
2022-08-03T23:42:19.108Z,3.60
2022-08-03T23:44:47.711Z,3.75
2022-08-03T23:47:15.834Z,3.80
2022-08-03T23:49:45.586Z,3.60
2022-08-03T23:52:20.159Z,4.00
2022-08-03T23:54:58.377Z,3.88
2022-08-03T23:57:33.819Z,3.88
